Time;durP1;ratioP1;P1;durP2;ratioP2;P2;SDS_P1;SDS_P2;PMS_P1;PMS_P2;Temp;Humidity;BMP_temperature;BMP_pressure;BME280_temperature;BME280_humidity;BME280_pressure;Samples;Min_cycle;Max_cycle;Signal;HPM_P1;HPM_P2
2023/04/15 00:00:36;;;;;;;6.30;4.90;;;;;;;6.74;100.00;101274.41;4945544;28;20942;-70
2023/04/15 00:03:02;;;;;;;5.30;4.77;;;;;;;6.75;100.00;101279.59;4945519;28;20832;-69
2023/04/15 00:05:32;;;;;;;5.97;4.83;;;;;;;6.48;100.00;101271.84;4962161;28;20195;-69
2023/04/15 00:08:00;;;;;;;6.03;5.10;;;;;;;6.74;100.00;101275.28;4964832;28;20453;-69
2023/04/15 00:10:26;;;;;;;6.00;4.73;;;;;;;6.67;100.00;101257.41;4964830;28;20505;-69
2023/04/15 00:12:52;;;;;;;6.00;4.70;;;;;;;6.73;100.00;101256.75;4965221;28;20470;-70
2023/04/15 00:15:18;;;;;;;5.70;4.57;;;;;;;6.77;100.00;101264.28;4946006;28;21019;-69
2023/04/15 00:17:43;;;;;;;5.50;4.73;;;;;;;6.54;100.00;101271.22;4964671;28;20207;-69
2023/04/15 00:20:09;;;;;;;6.37;4.60;;;;;;;6.36;100.00;101263.31;4964708;28;20437;-68
2023/04/15 00:22:35;;;;;;;6.40;4.43;;;;;;;6.60;100.00;101259.09;4965995;28;20187;-70
2023/04/15 00:25:01;;;;;;;5.17;4.60;;;;;;;6.43;100.00;101275.00;4963943;28;20218;-69
2023/04/15 00:27:27;;;;;;;5.07;4.27;;;;;;;5.80;100.00;101209.59;4964351;28;20441;-69
2023/04/15 00:29:52;;;;;;;5.90;4.50;;;;;;;6.25;100.00;101268.91;4945801;28;20222;-69
2023/04/15 00:32:19;;;;;;;7.97;5.00;;;;;;;6.09;100.00;101277.69;4964342;28;20438;-69
2023/04/15 00:34:45;;;;;;;5.40;4.47;;;;;;;6.37;100.00;101274.81;4964508;28;20214;-70
2023/04/15 00:37:10;;;;;;;5.50;4.47;;;;;;;6.44;100.00;101243.84;4963901;28;20823;-69
2023/04/15 00:39:36;;;;;;;6.40;4.60;;;;;;;6.32;100.00;101270.78;4963638;28;20433;-69
2023/04/15 00:42:03;;;;;;;5.37;4.23;;;;;;;6.63;100.00;101280.06;4945717;28;20206;-69
2023/04/15 00:44:29;;;;;;;4.83;4.30;;;;;;;6.60;100.00;101270.56;4945647;28;20178;-69
2023/04/15 00:46:55;;;;;;;7.10;5.00;;;;;;;6.44;100.00;101246.53;4944835;28;20956;-69
2023/04/15 00:49:21;;;;;;;4.27;3.87;;;;;;;6.11;100.00;101230.44;4962662;28;20264;-69
2023/04/15 00:51:47;;;;;;;5.97;4.70;;;;;;;6.62;100.00;101281.06;4958164;28;20512;-69
2023/04/15 00:54:12;;;;;;;6.40;4.47;;;;;;;6.43;100.00;101267.00;4956630;28;20478;-69
2023/04/15 00:56:38;;;;;;;5.90;4.90;;;;;;;6.62;100.00;101286.38;4946005;28;20575;-69
2023/04/15 00:59:05;;;;;;;5.77;5.20;;;;;;;6.69;100.00;101276.75;4963327;28;20191;-69
2023/04/15 01:01:34;;;;;;;6.13;5.00;;;;;;;6.59;100.00;101276.03;4958987;28;20562;-69
2023/04/15 01:04:00;;;;;;;6.73;5.67;;;;;;;6.58;100.00;101280.56;4945169;28;20441;-69
2023/04/15 01:06:26;;;;;;;5.77;5.20;;;;;;;6.35;100.00;101277.63;4961469;28;20445;-69
2023/04/15 01:08:53;;;;;;;9.50;6.10;;;;;;;6.10;100.00;101234.94;4944416;28;20597;-69
2023/04/15 01:11:19;;;;;;;7.93;6.20;;;;;;;6.16;100.00;101272.53;4946115;28;20435;-69
2023/04/15 01:13:45;;;;;;;9.70;6.90;;;;;;;6.38;100.00;101287.97;4963026;28;20500;-69
2023/04/15 01:16:12;;;;;;;8.43;6.20;;;;;;;6.48;100.00;101293.16;4963467;28;20446;-69
2023/04/15 01:18:38;;;;;;;7.73;6.93;;;;;;;6.23;100.00;101274.41;4960600;28;20956;-69
2023/04/15 01:21:04;;;;;;;7.33;6.50;;;;;;;6.05;100.00;101265.69;4961201;28;20600;-69
2023/04/15 01:23:30;;;;;;;9.43;7.23;;;;;;;6.20;100.00;101280.06;4945501;28;20438;-69
2023/04/15 01:25:57;;;;;;;7.93;7.13;;;;;;;6.14;100.00;101293.19;4962936;28;20449;-69
2023/04/15 01:28:22;;;;;;;9.03;7.83;;;;;;;5.93;100.00;101242.94;4960264;28;20556;-69
2023/04/15 01:30:48;;;;;;;7.60;6.60;;;;;;;6.11;100.00;101278.38;4963647;28;21052;-69
2023/04/15 01:33:13;;;;;;;11.00;7.27;;;;;;;6.15;100.00;101270.88;4961944;28;20670;-69
2023/04/15 01:35:39;;;;;;;9.77;7.13;;;;;;;6.06;100.00;101265.50;4960699;28;20194;-69
2023/04/15 01:38:07;;;;;;;9.50;6.63;;;;;;;5.97;100.00;101276.28;4960053;28;20202;-70
2023/04/15 01:40:34;;;;;;;7.50;6.70;;;;;;;6.11;100.00;101284.53;4961987;28;20201;-69
2023/04/15 01:43:02;;;;;;;7.90;7.10;;;;;;;5.92;100.00;101299.84;4954638;28;20446;-69
2023/04/15 01:45:28;;;;;;;9.60;7.80;;;;;;;6.05;100.00;101294.97;4943656;28;20505;-69
2023/04/15 01:47:54;;;;;;;8.50;7.23;;;;;;;5.91;100.00;101300.84;4957535;28;20559;-69
2023/04/15 01:50:20;;;;;;;9.30;7.77;;;;;;;6.00;100.00;101294.63;4955318;28;20459;-69
2023/04/15 01:52:46;;;;;;;10.10;7.53;;;;;;;6.00;100.00;101303.44;4946693;28;20225;-70
2023/04/15 01:55:12;;;;;;;11.67;7.40;;;;;;;5.94;100.00;101301.41;4956793;28;20472;-69
2023/04/15 01:57:38;;;;;;;7.73;6.53;;;;;;;6.01;100.00;101301.59;4956363;28;20919;-69
2023/04/15 02:00:06;;;;;;;8.03;7.23;;;;;;;6.03;100.00;101287.13;4959747;28;20521;-69
2023/04/15 02:02:32;;;;;;;8.47;7.17;;;;;;;6.08;100.00;101298.16;4943261;28;21451;-70
2023/04/15 02:04:57;;;;;;;8.07;7.10;;;;;;;6.01;100.00;101302.44;4942951;28;20441;-69
2023/04/15 02:07:23;;;;;;;9.47;7.37;;;;;;;6.07;100.00;101300.97;4942568;28;21146;-69
2023/04/15 02:09:49;;;;;;;8.87;7.20;;;;;;;6.13;100.00;101295.00;4958744;28;20190;-69
2023/04/15 02:12:14;;;;;;;8.27;7.47;;;;;;;6.10;100.00;101282.88;4958897;28;20198;-69
2023/04/15 02:14:40;;;;;;;9.37;7.63;;;;;;;6.16;100.00;101302.66;4958860;28;20190;-69
2023/04/15 02:17:07;;;;;;;7.47;6.73;;;;;;;6.06;100.00;101280.66;4956151;28;20219;-69
2023/04/15 02:19:35;;;;;;;8.40;7.60;;;;;;;6.24;100.00;101299.22;4957730;28;20281;-69
2023/04/15 02:22:01;;;;;;;9.97;7.37;;;;;;;6.11;100.00;101287.19;4941255;28;20826;-69
2023/04/15 02:24:30;;;;;;;8.77;7.87;;;;;;;6.29;100.00;101308.41;4956235;28;20452;-69
2023/04/15 02:26:56;;;;;;;10.10;8.43;;;;;;;5.92;100.00;101255.41;4956569;28;20278;-69
2023/04/15 02:29:22;;;;;;;9.17;8.00;;;;;;;6.17;100.00;101307.03;4956823;28;20442;-69
2023/04/15 02:31:48;;;;;;;9.73;8.70;;;;;;;6.10;100.00;101312.16;4957979;28;20519;-69
2023/04/15 02:34:13;;;;;;;9.70;8.70;;;;;;;6.27;100.00;101322.88;4955314;28;21174;-69
2023/04/15 02:36:39;;;;;;;9.20;8.30;;;;;;;6.06;100.00;101308.13;4957064;28;20195;-69
2023/04/15 02:39:05;;;;;;;10.60;9.50;;;;;;;6.15;100.00;101327.66;4958738;28;20206;-69
2023/04/15 02:41:30;;;;;;;9.50;8.50;;;;;;;6.06;100.00;101312.63;4960361;28;20505;-69
2023/04/15 02:43:56;;;;;;;9.20;8.30;;;;;;;6.12;100.00;101322.63;4958701;28;20256;-69
2023/04/15 02:46:21;;;;;;;9.57;8.50;;;;;;;6.10;100.00;101327.28;4960754;28;20668;-69
2023/04/15 02:48:48;;;;;;;9.23;8.33;;;;;;;6.01;100.00;101317.56;4960160;28;20214;-69
2023/04/15 02:51:15;;;;;;;11.70;9.17;;;;;;;6.04;100.00;101320.75;4956952;28;20186;-69
2023/04/15 02:53:41;;;;;;;9.43;7.80;;;;;;;5.95;100.00;101311.06;4960129;28;20513;-69
2023/04/15 02:56:07;;;;;;;8.87;8.03;;;;;;;5.84;100.00;101321.91;4958002;28;20477;-69
2023/04/15 02:58:33;;;;;;;9.37;8.43;;;;;;;5.43;100.00;101247.94;4959079;28;20236;-69
2023/04/15 03:00:59;;;;;;;9.00;8.10;;;;;;;5.77;100.00;101294.28;4962487;28;23725;-69
2023/04/15 03:03:26;;;;;;;8.60;7.70;;;;;;;5.86;100.00;101320.78;4963868;28;20979;-69
2023/04/15 03:05:52;;;;;;;11.03;7.83;;;;;;;5.89;100.00;101327.63;4964424;28;20183;-69
2023/04/15 03:08:17;;;;;;;11.40;8.70;;;;;;;5.31;100.00;101288.25;4965262;28;20833;-69
2023/04/15 03:10:43;;;;;;;8.20;7.40;;;;;;;5.91;100.00;101338.13;4965717;28;20242;-69
2023/04/15 03:13:08;;;;;;;9.37;8.33;;;;;;;6.02;100.00;101344.06;4966374;28;20209;-69
2023/04/15 03:15:34;;;;;;;9.93;8.73;;;;;;;5.94;100.00;101344.00;4964779;28;20203;-69
2023/04/15 03:17:59;;;;;;;8.73;7.20;;;;;;;5.81;100.00;101327.56;4962582;28;20202;-69
2023/04/15 03:20:25;;;;;;;9.30;8.40;;;;;;;5.88;100.00;101340.09;4964707;28;20631;-69
2023/04/15 03:22:50;;;;;;;8.10;7.30;;;;;;;5.91;100.00;101344.28;4962725;28;20202;-69
2023/04/15 03:25:16;;;;;;;8.57;7.77;;;;;;;5.81;100.00;101354.19;4947404;28;20189;-69
2023/04/15 03:27:41;;;;;;;8.17;7.37;;;;;;;5.80;100.00;101357.84;4946342;28;20704;-69
2023/04/15 03:30:07;;;;;;;9.50;7.37;;;;;;;5.86;100.00;101352.72;4964640;28;20593;-69
2023/04/15 03:32:33;;;;;;;7.60;6.63;;;;;;;5.60;100.00;101309.28;4946193;28;20202;-69
2023/04/15 03:34:59;;;;;;;7.33;6.50;;;;;;;5.85;100.00;101353.72;4963055;28;20453;-69
2023/04/15 03:37:24;;;;;;;8.00;7.20;;;;;;;5.96;100.00;101367.78;4948178;28;20207;-69
2023/04/15 03:39:50;;;;;;;8.70;7.80;;;;;;;5.93;100.00;101363.66;4962967;28;20189;-69
2023/04/15 03:42:15;;;;;;;9.10;7.53;;;;;;;5.75;100.00;101315.72;4961712;28;20690;-69
2023/04/15 03:44:41;;;;;;;8.60;6.83;;;;;;;5.78;100.00;101325.22;4945176;28;20277;-69
2023/04/15 03:47:06;;;;;;;7.63;6.93;;;;;;;5.65;100.00;101278.56;4962699;28;20698;-69
2023/04/15 03:49:32;;;;;;;9.10;8.13;;;;;;;6.49;100.00;101359.63;4961413;28;20185;-69
2023/04/15 03:51:58;;;;;;;8.87;7.67;;;;;;;6.60;100.00;101353.19;4945986;28;20278;-69
2023/04/15 03:54:24;;;;;;;9.07;8.17;;;;;;;6.59;100.00;101350.69;4963478;28;20206;-69
2023/04/15 03:56:49;;;;;;;8.57;7.77;;;;;;;5.31;100.00;101134.00;4985474;23;20453;-73
2023/04/15 03:59:15;;;;;;;10.50;8.47;;;;;;;4.54;100.00;101030.13;4956138;28;20198;-73
2023/04/15 04:01:40;;;;;;;9.43;8.07;;;;;;;5.09;100.00;101148.63;4978942;28;20194;-73
2023/04/15 04:04:06;;;;;;;8.47;7.60;;;;;;;5.22;100.00;101122.47;4979059;28;20190;-73
2023/04/15 04:06:31;;;;;;;8.53;7.73;;;;;;;5.28;100.00;101086.44;4981580;28;20185;-73
2023/04/15 04:08:57;;;;;;;10.77;8.80;;;;;;;6.72;100.00;101290.59;4978592;28;20213;-74
2023/04/15 04:11:22;;;;;;;8.87;7.97;;;;;;;6.31;100.00;101247.00;4976208;28;20198;-74
2023/04/15 04:13:48;;;;;;;8.97;8.07;;;;;;;5.13;100.00;101089.69;4981213;28;20202;-74
2023/04/15 04:16:13;;;;;;;8.80;8.00;;;;;;;5.24;100.00;101099.22;4979299;28;20193;-74
2023/04/15 04:18:39;;;;;;;10.30;8.50;;;;;;;4.15;100.00;100948.19;4979933;28;20214;-74
2023/04/15 04:21:04;;;;;;;8.90;8.03;;;;;;;4.91;100.00;101106.97;4980727;28;20189;-74
2023/04/15 04:23:30;;;;;;;9.90;8.90;;;;;;;5.21;100.00;101115.50;4981810;28;20186;-74
2023/04/15 04:25:55;;;;;;;10.27;9.17;;;;;;;3.91;100.00;100985.97;4979289;28;20280;-74
2023/04/15 04:28:21;;;;;;;8.80;7.90;;;;;;;4.66;100.00;101105.13;4979494;28;20260;-74
2023/04/15 04:30:46;;;;;;;10.83;9.10;;;;;;;4.88;100.00;101128.53;4982924;28;20211;-74
2023/04/15 04:33:12;;;;;;;10.90;8.60;;;;;;;3.85;100.00;101035.19;4979650;28;20751;-74
2023/04/15 04:35:37;;;;;;;11.00;9.07;;;;;;;4.05;100.00;101062.41;4978539;28;20202;-73
2023/04/15 04:38:03;;;;;;;10.47;7.90;;;;;;;5.07;100.00;101259.66;4977053;28;20214;-73
2023/04/15 04:40:29;;;;;;;9.30;8.40;;;;;;;3.82;100.00;100995.69;4977319;28;20204;-74
2023/04/15 04:42:55;;;;;;;9.37;8.37;;;;;;;4.63;100.00;101137.28;4981810;28;20446;-74
2023/04/15 04:45:21;;;;;;;9.63;8.30;;;;;;;5.35;100.00;101255.03;4960216;28;20821;-73
2023/04/15 04:47:47;;;;;;;8.70;7.80;;;;;;;4.24;100.00;101082.66;4979652;28;22808;-73
2023/04/15 04:50:12;;;;;;;12.87;8.60;;;;;;;3.83;100.00;101004.47;4982473;28;20442;-73
2023/04/15 04:52:38;;;;;;;10.33;8.53;;;;;;;4.34;100.00;101073.78;4974901;28;20273;-74
2023/04/15 04:55:04;;;;;;;9.50;7.90;;;;;;;4.76;100.00;101182.94;4975973;28;20214;-73
2023/04/15 04:57:29;;;;;;;8.17;7.33;;;;;;;4.21;100.00;101055.59;4977264;28;20233;-74
2023/04/15 04:59:55;;;;;;;8.83;7.97;;;;;;;4.78;100.00;101148.25;4978548;28;20445;-73
2023/04/15 05:02:21;;;;;;;9.63;8.03;;;;;;;3.98;100.00;101010.91;4976948;28;20221;-73
2023/04/15 05:04:46;;;;;;;9.53;8.53;;;;;;;4.80;100.00;101148.91;4979103;28;20182;-73
2023/04/15 05:07:11;;;;;;;8.80;7.90;;;;;;;4.80;100.00;101122.31;4982691;28;20202;-73
2023/04/15 05:09:37;;;;;;;9.07;8.17;;;;;;;4.63;100.00;101089.47;4978366;28;20193;-73
2023/04/15 05:12:03;;;;;;;9.97;8.90;;;;;;;5.13;100.00;101181.91;4980142;28;20192;-73
2023/04/15 05:14:29;;;;;;;8.97;7.80;;;;;;;4.87;100.00;101148.16;4979104;28;20304;-73
2023/04/15 05:16:55;;;;;;;9.30;7.53;;;;;;;6.42;100.00;101374.59;4981798;28;20535;-74
2023/04/15 05:19:21;;;;;;;8.50;6.93;;;;;;;5.42;100.00;101201.06;4980520;28;20898;-73
2023/04/15 05:21:46;;;;;;;9.03;7.33;;;;;;;6.51;100.00;101364.81;4967757;28;20449;-74
2023/04/15 05:24:12;;;;;;;8.50;7.37;;;;;;;5.36;100.00;101215.00;4976318;28;20269;-73
2023/04/15 05:26:37;;;;;;;10.27;6.87;;;;;;;5.30;100.00;101180.22;4979544;28;20190;-74
2023/04/15 05:29:02;;;;;;;7.47;6.73;;;;;;;4.38;100.00;101036.16;4975605;28;20294;-74
2023/04/15 05:31:28;;;;;;;6.93;6.23;;;;;;;4.63;100.00;101069.06;4979094;28;20198;-74
2023/04/15 05:33:54;;;;;;;7.27;6.30;;;;;;;7.04;100.00;101437.53;4974330;28;20912;-74
2023/04/15 05:36:20;;;;;;;7.20;6.00;;;;;;;6.48;100.00;101339.31;4958494;28;20204;-74
2023/04/15 05:38:45;;;;;;;7.67;6.27;;;;;;;5.48;100.00;101178.31;4975128;28;20233;-73
2023/04/15 05:41:11;;;;;;;7.47;6.20;;;;;;;5.10;100.00;101148.50;4972544;28;20448;-73
2023/04/15 05:43:36;;;;;;;6.33;5.10;;;;;;;4.61;100.00;101033.84;4974940;28;20202;-73
2023/04/15 05:46:01;;;;;;;6.93;5.97;;;;;;;4.50;100.00;101018.16;4982483;28;20192;-74
2023/04/15 05:48:27;;;;;;;7.40;5.10;;;;;;;5.70;100.00;101234.66;4979446;28;20216;-74
2023/04/15 05:50:52;;;;;;;7.73;5.30;;;;;;;6.65;100.00;101352.69;4980520;28;20190;-75
2023/04/15 05:53:18;;;;;;;5.23;4.63;;;;;;;5.43;100.00;101162.00;4977592;28;20206;-74
2023/04/15 05:55:43;;;;;;;8.03;5.50;;;;;;;5.83;100.00;101227.91;4978914;28;20533;-74
2023/04/15 05:58:09;;;;;;;5.40;4.90;;;;;;;6.94;100.00;101363.84;4976450;28;20209;-74
2023/04/15 06:00:35;;;;;;;5.83;4.97;;;;;;;6.61;100.00;101336.19;4975599;28;20213;-74
2023/04/15 06:03:01;;;;;;;5.63;4.23;;;;;;;6.85;100.00;101370.09;4981443;28;20571;-74
2023/04/15 06:05:26;;;;;;;5.67;5.03;;;;;;;7.25;100.00;101428.09;4980664;28;20429;-74
2023/04/15 06:07:52;;;;;;;5.67;4.40;;;;;;;5.10;100.00;101110.44;4980970;28;20221;-74
2023/04/15 06:10:17;;;;;;;5.63;4.57;;;;;;;5.55;100.00;101171.38;4980694;28;20636;-74
2023/04/15 06:12:43;;;;;;;4.80;4.00;;;;;;;5.92;100.00;101274.06;4981272;28;20220;-74
2023/04/15 06:15:09;;;;;;;6.40;4.10;;;;;;;5.10;100.00;101082.00;4975105;28;20200;-74
2023/04/15 06:17:35;;;;;;;5.30;4.20;;;;;;;5.09;100.00;101093.66;4978521;28;20218;-75
2023/04/15 06:20:01;;;;;;;4.80;4.13;;;;;;;5.96;100.00;101264.81;4962903;28;20978;-75
2023/04/15 06:22:26;;;;;;;5.07;4.57;;;;;;;6.17;100.00;101256.41;4975997;28;20450;-73
2023/04/15 06:24:52;;;;;;;6.47;4.70;;;;;;;6.18;100.00;101265.25;4975696;28;20215;-75
2023/04/15 06:27:18;;;;;;;4.63;4.23;;;;;;;5.39;100.00;101110.09;4978697;28;20799;-76
2023/04/15 06:29:43;;;;;;;7.80;4.47;;;;;;;6.07;100.00;101251.19;4978755;28;20202;-76
2023/04/15 06:32:10;;;;;;;7.20;5.00;;;;;;;5.80;100.00;101196.28;4980742;28;20452;-75
2023/04/15 06:34:36;;;;;;;6.57;4.63;;;;;;;6.20;100.00;101247.28;4978323;28;20210;-76
2023/04/15 06:37:01;;;;;;;5.73;4.97;;;;;;;6.19;100.00;101272.22;4972917;28;20469;-75
2023/04/15 06:39:27;;;;;;;4.33;3.83;;;;;;;5.74;100.00;101191.59;4976886;28;20189;-75
2023/04/15 06:41:52;;;;;;;5.13;4.40;;;;;;;6.17;100.00;101272.41;4975954;28;20194;-75
2023/04/15 06:44:18;;;;;;;5.30;4.80;;;;;;;7.12;100.00;101413.56;4961943;28;20193;-74
2023/04/15 06:46:43;;;;;;;5.53;4.43;;;;;;;6.16;100.00;101262.72;4974430;28;20675;-75
2023/04/15 06:49:10;;;;;;;5.00;4.50;;;;;;;5.75;100.00;101197.75;4977599;28;20588;-75
2023/04/15 06:51:36;;;;;;;6.37;5.00;;;;;;;7.14;100.00;101404.38;4974408;28;20197;-75
2023/04/15 06:54:04;;;;;;;6.20;4.50;;;;;;;6.21;100.00;101256.94;4976129;28;20476;-75
2023/04/15 06:56:33;;;;;;;6.07;4.30;;;;;;;5.94;100.00;101210.03;4975514;28;20453;-75
2023/04/15 06:58:58;;;;;;;5.10;4.60;;;;;;;6.53;100.00;101302.34;4971773;28;20511;-75
2023/04/15 07:01:24;;;;;;;6.00;4.80;;;;;;;5.91;100.00;101170.41;4976855;28;20833;-74
2023/04/15 07:03:49;;;;;;;5.93;4.53;;;;;;;7.60;100.00;101444.84;4958664;28;20185;-75
2023/04/15 07:06:15;;;;;;;7.27;5.07;;;;;;;7.08;100.00;101369.50;4976614;28;20198;-76
2023/04/15 07:08:40;;;;;;;5.93;4.00;;;;;;;6.85;100.00;101327.44;4970444;28;20229;-76
2023/04/15 07:11:06;;;;;;;5.80;4.00;;;;;;;6.33;100.00;101226.34;4973773;28;20194;-76
2023/04/15 07:13:31;;;;;;;6.40;4.30;;;;;;;6.56;100.00;101261.22;4971185;28;20581;-75
2023/04/15 07:15:57;;;;;;;4.13;3.60;;;;;;;7.08;100.00;101362.34;4969117;28;20202;-75
2023/04/15 07:18:23;;;;;;;4.07;3.13;;;;;;;6.10;100.00;101170.16;4955630;28;20209;-75
2023/04/15 07:20:48;;;;;;;4.27;3.53;;;;;;;7.01;100.00;101324.00;4977647;28;20197;-75
2023/04/15 07:23:14;;;;;;;4.03;3.20;;;;;;;6.82;100.00;101286.94;4973291;28;20211;-74
2023/04/15 07:25:39;;;;;;;4.37;3.50;;;;;;;6.45;100.00;101201.06;4968514;28;20189;-74
2023/04/15 07:28:05;;;;;;;3.87;3.27;;;;;;;6.99;100.00;101316.16;4970969;28;20202;-74
2023/04/15 07:30:30;;;;;;;5.47;3.20;;;;;;;6.66;100.00;101250.44;4975136;28;20191;-74
2023/04/15 07:32:57;;;;;;;2.93;2.60;;;;;;;7.46;100.00;101374.28;4966815;28;20271;-74
2023/04/15 07:35:24;;;;;;;4.53;3.20;;;;;;;6.94;100.00;101314.97;4973772;28;20653;-74
2023/04/15 07:37:50;;;;;;;3.10;2.60;;;;;;;8.05;100.00;101456.91;4976553;28;21019;-75
2023/04/15 07:40:15;;;;;;;4.80;3.37;;;;;;;6.52;100.00;101223.41;4978348;28;20506;-74
2023/04/15 07:42:41;;;;;;;4.87;3.03;;;;;;;6.30;100.00;101168.03;4958938;28;20189;-74
2023/04/15 07:45:08;;;;;;;4.83;2.80;;;;;;;6.11;100.00;101132.72;4979849;28;20202;-74
2023/04/15 07:47:33;;;;;;;2.87;2.57;;;;;;;7.75;100.00;101407.63;4978701;28;20704;-74
2023/04/15 07:49:59;;;;;;;5.63;3.10;;;;;;;7.06;100.00;101300.34;4978727;28;20943;-74
2023/04/15 07:52:26;;;;;;;3.40;2.77;;;;;;;6.95;100.00;101276.66;4982980;28;20221;-73
2023/04/15 07:54:51;;;;;;;4.47;3.07;;;;;;;7.28;100.00;101333.53;4981224;28;20445;-74
2023/04/15 07:57:17;;;;;;;3.47;2.50;;;;;;;7.81;100.00;101420.34;4982773;28;20589;-73
2023/04/15 07:59:42;;;;;;;4.07;2.60;;;;;;;7.72;100.00;101388.44;4982567;28;20185;-73
2023/04/15 08:02:09;;;;;;;5.93;3.40;;;;;;;7.90;100.00;101427.38;4977995;28;20194;-73
2023/04/15 08:04:35;;;;;;;2.80;2.37;;;;;;;8.47;100.00;101513.88;4980363;28;20663;-73
2023/04/15 08:07:00;;;;;;;4.10;2.70;;;;;;;8.00;100.00;101413.00;4981118;28;20592;-73
2023/04/15 08:09:26;;;;;;;4.70;3.40;;;;;;;7.75;100.00;101382.78;4984057;28;20193;-73
2023/04/15 08:11:52;;;;;;;3.53;3.00;;;;;;;7.92;100.00;101406.63;4982839;28;20194;-73
2023/04/15 08:14:17;;;;;;;5.07;2.97;;;;;;;8.26;100.00;101471.59;4983091;28;20676;-73
2023/04/15 08:16:43;;;;;;;5.20;3.17;;;;;;;8.62;100.00;101540.78;4983714;28;20449;-73
2023/04/15 08:19:08;;;;;;;4.10;3.27;;;;;;;8.56;100.00;101526.22;4968369;28;20612;-73
2023/04/15 08:21:34;;;;;;;5.87;2.90;;;;;;;8.72;100.00;101552.13;4982959;28;20281;-73
2023/04/15 08:24:00;;;;;;;4.50;3.17;;;;;;;7.99;100.00;101424.69;4983436;28;20182;-73
2023/04/15 08:26:26;;;;;;;5.23;3.10;;;;;;;8.50;100.00;101500.16;4983009;28;20212;-73
2023/04/15 08:28:51;;;;;;;5.90;2.97;;;;;;;7.84;100.00;101406.66;4983759;28;20931;-73
2023/04/15 08:31:18;;;;;;;4.83;3.13;;;;;;;7.89;100.00;101392.78;4983594;28;20608;-73
2023/04/15 08:33:45;;;;;;;3.03;2.60;;;;;;;7.56;100.00;101362.59;4982241;28;20206;-72
2023/04/15 08:36:12;;;;;;;3.40;2.80;;;;;;;6.65;100.00;101241.56;4984092;28;20483;-73
2023/04/15 08:38:38;;;;;;;2.47;2.27;;;;;;;6.68;100.00;101227.09;4982588;28;20872;-73
2023/04/15 08:41:11;;;;;;;4.13;2.70;;;;;;;7.90;100.00;101432.69;4983685;28;20430;-73
2023/04/15 08:43:46;;;;;;;5.07;2.80;;;;;;;6.42;100.00;101177.41;4984131;28;20245;-73
2023/04/15 08:46:12;;;;;;;3.07;2.77;;;;;;;6.40;100.00;101168.75;4982768;28;20809;-73
2023/04/15 08:48:39;;;;;;;3.47;2.10;;;;;;;6.72;100.00;101247.94;4983361;28;20442;-73
2023/04/15 08:51:06;;;;;;;4.20;2.80;;;;;;;6.71;100.00;101237.41;4982737;28;20443;-73
2023/04/15 08:53:32;;;;;;;7.37;2.70;;;;;;;7.18;100.00;101322.19;4983067;28;20464;-73
2023/04/15 08:56:03;;;;;;;4.90;2.60;;;;;;;8.76;100.00;101558.81;4982361;28;20522;-73
2023/04/15 08:58:29;;;;;;;8.60;2.20;;;;;;;8.43;100.00;101509.88;4981259;28;20457;-73
2023/04/15 09:00:56;;;;;;;4.83;2.33;;;;;;;8.77;100.00;101577.38;4983372;28;20805;-72
2023/04/15 09:03:22;;;;;;;3.17;1.90;;;;;;;8.74;100.00;101556.31;4982311;28;20193;-73
2023/04/15 09:05:49;;;;;;;3.10;2.50;;;;;;;8.23;100.00;101466.59;4981860;28;20471;-73
2023/04/15 09:08:15;;;;;;;5.23;2.13;;;;;;;7.87;100.00;101417.00;4965359;28;20815;-73
2023/04/15 09:10:40;;;;;;;4.60;2.20;;;;;;;8.04;100.00;101449.91;4968222;28;20452;-73
2023/04/15 09:13:06;;;;;;;6.37;2.30;;;;;;;8.75;100.00;101578.53;4982556;28;20228;-73
2023/04/15 09:15:32;;;;;;;4.77;2.70;;;;;;;8.13;100.00;101482.81;4982016;28;20201;-72
2023/04/15 09:17:58;;;;;;;3.47;2.13;;;;;;;8.75;100.00;101589.25;4965271;28;20364;-73
2023/04/15 09:20:23;;;;;;;5.23;2.43;;;;;;;8.36;100.00;101539.94;4982389;28;20568;-73
2023/04/15 09:22:50;;;;;;;2.90;2.33;;;;;;;8.17;100.00;101528.72;4982764;28;20181;-73
2023/04/15 09:25:28;;;;;;;4.63;1.83;;;;;;;8.37;100.00;101536.25;4982727;28;20183;-72
2023/04/15 09:27:58;;;;;;;4.30;2.17;;;;;;;8.81;100.00;101593.91;4981668;28;20598;-73
2023/04/15 09:30:24;;;;;;;5.33;2.00;;;;;;;8.85;100.00;101597.09;4983166;28;20433;-72
2023/04/15 09:32:53;;;;;;;4.40;2.07;;;;;;;8.72;100.00;101597.59;4962768;28;20468;-72
2023/04/15 09:35:25;;;;;;;4.30;2.53;;;;;;;8.52;100.00;101573.03;4981981;28;20456;-73
2023/04/15 09:37:51;;;;;;;4.63;2.13;;;;;;;7.75;100.00;101447.69;4982800;28;20583;-73
2023/04/15 09:40:35;;;;;;;5.30;2.00;;;;;;;8.59;100.00;101590.94;4982145;28;20429;-73
2023/04/15 09:43:01;;;;;;;5.33;2.03;;;;;;;8.67;100.00;101603.44;4982419;28;20498;-73
2023/04/15 09:45:28;;;;;;;2.30;1.60;;;;;;;8.82;100.00;101606.28;4982002;28;20421;-73
2023/04/15 09:47:53;;;;;;;4.83;1.83;;;;;;;8.89;100.00;101611.81;4981064;28;20875;-73
2023/04/15 09:50:20;;;;;;;3.90;1.87;;;;;;;7.98;100.00;101481.78;4982137;28;20915;-73
2023/04/15 09:52:46;;;;;;;5.70;2.30;;;;;;;8.68;100.00;101593.56;4981752;28;20186;-73
2023/04/15 09:55:13;;;;;;;4.93;1.80;;;;;;;8.87;100.00;101608.47;4981475;28;20529;-73
2023/04/15 09:57:57;;;;;;;4.87;1.93;;;;;;;9.01;100.00;101621.16;4995113;23;20903;-70
2023/04/15 10:00:23;;;;;;;2.90;1.60;;;;;;;8.65;100.00;101561.81;5002247;28;20428;-70
2023/04/15 10:02:48;;;;;;;5.50;2.27;;;;;;;8.72;100.00;101592.25;5002041;28;20428;-70
2023/04/15 10:05:18;;;;;;;4.87;1.90;;;;;;;8.93;100.00;101616.63;4991523;28;20197;-69
2023/04/15 10:07:44;;;;;;;3.27;2.00;;;;;;;8.40;100.00;101540.47;5001811;28;20299;-70
2023/04/15 10:10:10;;;;;;;2.80;1.80;;;;;;;8.46;100.00;101541.63;5000781;28;20436;-70
2023/04/15 10:12:40;;;;;;;5.33;1.93;;;;;;;8.91;100.00;101625.84;5000505;28;20483;-70
2023/04/15 10:15:11;;;;;;;4.17;2.20;;;;;;;8.95;100.00;101628.00;5000715;28;20788;-70
2023/04/15 10:17:40;;;;;;;3.17;1.97;;;;;;;8.03;100.00;101492.81;5000555;28;20959;-69
2023/04/15 10:20:08;;;;;;;6.40;2.53;;;;;;;8.85;100.00;101638.03;5006992;28;20782;-70
2023/04/15 10:22:35;;;;;;;6.03;2.10;;;;;;;8.92;100.00;101622.16;5002456;28;20424;-70
2023/04/15 10:25:03;;;;;;;2.83;1.70;;;;;;;8.36;100.00;101557.78;4984663;28;20428;-70
2023/04/15 10:27:29;;;;;;;5.63;1.87;;;;;;;8.26;100.00;101533.06;4984862;28;20454;-70
2023/04/15 10:29:56;;;;;;;4.40;1.63;;;;;;;8.42;100.00;101556.31;5001896;28;20474;-70
2023/04/15 10:32:24;;;;;;;6.70;2.03;;;;;;;8.41;100.00;101568.84;5002470;28;20423;-71
2023/04/15 10:34:51;;;;;;;4.63;2.03;;;;;;;8.40;100.00;101567.19;4984922;28;20472;-70
2023/04/15 10:37:34;;;;;;;3.80;1.93;;;;;;;9.07;100.00;101633.84;4983912;28;20433;-70
2023/04/15 10:39:59;;;;;;;3.80;1.80;;;;;;;9.14;100.00;101632.19;4984374;28;20925;-69
2023/04/15 10:42:33;;;;;;;3.20;1.67;;;;;;;8.87;100.00;101585.22;5001245;28;20421;-70
2023/04/15 10:44:59;;;;;;;3.10;2.00;;;;;;;8.98;100.00;101643.72;4999452;28;20209;-70
2023/04/15 10:47:24;;;;;;;3.43;1.70;;;;;;;8.73;100.00;101605.44;5000618;28;20480;-70
2023/04/15 10:49:51;;;;;;;3.70;1.77;;;;;;;9.05;100.00;101617.97;5002118;28;20430;-70
2023/04/15 10:52:23;;;;;;;4.53;2.30;;;;;;;9.25;100.00;101626.44;4983552;28;20651;-70
2023/04/15 10:54:48;;;;;;;5.93;1.60;;;;;;;8.98;100.00;101614.31;4999659;28;20571;-69
2023/04/15 10:57:23;;;;;;;2.87;1.57;;;;;;;8.58;100.00;101591.91;5000153;28;20433;-70
2023/04/15 10:59:57;;;;;;;5.27;2.20;;;;;;;8.92;100.00;101644.41;5000701;28;20271;-70
2023/04/15 11:02:42;;;;;;;4.70;2.07;;;;;;;8.91;100.00;101647.25;4984110;28;20436;-70
2023/04/15 11:05:07;;;;;;;6.10;1.70;;;;;;;8.36;100.00;101569.34;4983313;28;20483;-70
2023/04/15 11:07:40;;;;;;;4.40;1.60;;;;;;;8.81;100.00;101655.44;4999602;28;20448;-70
2023/04/15 11:10:19;;;;;;;4.87;1.93;;;;;;;8.77;100.00;101649.59;5001912;28;20660;-70
2023/04/15 11:12:45;;;;;;;6.50;1.57;;;;;;;8.13;100.00;101563.81;5000037;28;20441;-70
2023/04/15 11:15:29;;;;;;;4.90;2.47;;;;;;;8.71;100.00;101660.97;5000256;28;20424;-70
2023/04/15 11:17:56;;;;;;;6.80;1.60;;;;;;;8.66;100.00;101636.56;5000710;28;20443;-70
2023/04/15 11:20:21;;;;;;;4.50;1.50;;;;;;;8.77;100.00;101670.16;4987141;28;20455;-70